sensor_id;sensor_type;location;lat;lon;timestamp;P1;durP1;ratioP1;P2;durP2;ratioP2
63005;SDS011;53704;52.532;6.426;2023-02-20T00:00:38;8.48;;;6.70;;
63005;SDS011;53704;52.532;6.426;2023-02-20T00:03:05;16.77;;;7.07;;
63005;SDS011;53704;52.532;6.426;2023-02-20T00:05:31;8.20;;;7.40;;
63005;SDS011;53704;52.532;6.426;2023-02-20T00:07:56;8.80;;;7.47;;
63005;SDS011;53704;52.532;6.426;2023-02-20T00:10:22;9.48;;;7.18;;
63005;SDS011;53704;52.532;6.426;2023-02-20T00:12:48;9.88;;;7.63;;
63005;SDS011;53704;52.532;6.426;2023-02-20T00:15:14;10.32;;;7.95;;
63005;SDS011;53704;52.532;6.426;2023-02-20T00:17:43;7.30;;;6.63;;
63005;SDS011;53704;52.532;6.426;2023-02-20T00:20:12;9.65;;;7.05;;
63005;SDS011;53704;52.532;6.426;2023-02-20T00:22:39;7.65;;;7.05;;
63005;SDS011;53704;52.532;6.426;2023-02-20T00:25:07;7.85;;;7.35;;
63005;SDS011;53704;52.532;6.426;2023-02-20T00:27:33;8.38;;;7.45;;
63005;SDS011;53704;52.532;6.426;2023-02-20T00:29:58;8.38;;;7.50;;
63005;SDS011;53704;52.532;6.426;2023-02-20T00:32:24;9.02;;;8.00;;
63005;SDS011;53704;52.532;6.426;2023-02-20T00:34:49;9.65;;;7.78;;
63005;SDS011;53704;52.532;6.426;2023-02-20T00:37:15;12.00;;;7.18;;
63005;SDS011;53704;52.532;6.426;2023-02-20T00:39:40;9.07;;;7.60;;
63005;SDS011;53704;52.532;6.426;2023-02-20T00:42:06;11.63;;;7.35;;
63005;SDS011;53704;52.532;6.426;2023-02-20T00:44:31;11.70;;;7.80;;
63005;SDS011;53704;52.532;6.426;2023-02-20T00:46:57;7.72;;;7.13;;
63005;SDS011;53704;52.532;6.426;2023-02-20T00:49:22;8.93;;;7.70;;
63005;SDS011;53704;52.532;6.426;2023-02-20T00:51:48;10.20;;;7.80;;
63005;SDS011;53704;52.532;6.426;2023-02-20T00:54:13;9.32;;;7.70;;
63005;SDS011;53704;52.532;6.426;2023-02-20T00:56:39;9.38;;;7.45;;
63005;SDS011;53704;52.532;6.426;2023-02-20T00:59:08;11.15;;;7.65;;
63005;SDS011;53704;52.532;6.426;2023-02-20T01:01:34;12.52;;;8.15;;
63005;SDS011;53704;52.532;6.426;2023-02-20T01:03:59;7.80;;;6.75;;
63005;SDS011;53704;52.532;6.426;2023-02-20T01:06:24;16.98;;;8.27;;
63005;SDS011;53704;52.532;6.426;2023-02-20T01:08:50;10.95;;;7.97;;
63005;SDS011;53704;52.532;6.426;2023-02-20T01:11:16;14.25;;;8.73;;
63005;SDS011;53704;52.532;6.426;2023-02-20T01:13:42;9.20;;;8.05;;
63005;SDS011;53704;52.532;6.426;2023-02-20T01:16:08;12.27;;;8.75;;
63005;SDS011;53704;52.532;6.426;2023-02-20T01:18:33;13.38;;;8.30;;
63005;SDS011;53704;52.532;6.426;2023-02-20T01:20:59;13.07;;;9.10;;
63005;SDS011;53704;52.532;6.426;2023-02-20T01:23:24;14.32;;;9.63;;
63005;SDS011;53704;52.532;6.426;2023-02-20T01:25:50;13.23;;;9.52;;
63005;SDS011;53704;52.532;6.426;2023-02-20T01:28:15;15.32;;;9.55;;
63005;SDS011;53704;52.532;6.426;2023-02-20T01:30:41;15.75;;;9.88;;
63005;SDS011;53704;52.532;6.426;2023-02-20T01:33:07;14.55;;;9.57;;
63005;SDS011;53704;52.532;6.426;2023-02-20T01:35:32;13.57;;;8.98;;
63005;SDS011;53704;52.532;6.426;2023-02-20T01:37:58;13.00;;;9.85;;
63005;SDS011;53704;52.532;6.426;2023-02-20T01:40:24;11.73;;;10.45;;
63005;SDS011;53704;52.532;6.426;2023-02-20T01:42:51;19.50;;;10.38;;
63005;SDS011;53704;52.532;6.426;2023-02-20T01:47:46;19.10;;;10.82;;
63005;SDS011;53704;52.532;6.426;2023-02-20T01:50:12;20.15;;;10.52;;
63005;SDS011;53704;52.532;6.426;2023-02-20T01:52:38;14.68;;;10.05;;
63005;SDS011;53704;52.532;6.426;2023-02-20T01:55:19;21.27;;;12.13;;
63005;SDS011;53704;52.532;6.426;2023-02-20T01:58:34;14.65;;;9.32;;
63005;SDS011;53704;52.532;6.426;2023-02-20T02:00:43;16.30;;;11.02;;
63005;SDS011;53704;52.532;6.426;2023-02-20T02:03:13;15.13;;;11.10;;
63005;SDS011;53704;52.532;6.426;2023-02-20T02:05:43;18.15;;;11.75;;
63005;SDS011;53704;52.532;6.426;2023-02-20T02:08:12;17.20;;;11.52;;
63005;SDS011;53704;52.532;6.426;2023-02-20T02:13:18;12.43;;;10.95;;
63005;SDS011;53704;52.532;6.426;2023-02-20T02:15:44;20.42;;;11.93;;
63005;SDS011;53704;52.532;6.426;2023-02-20T02:18:16;17.90;;;11.15;;
63005;SDS011;53704;52.532;6.426;2023-02-20T02:23:36;19.88;;;12.25;;
63005;SDS011;53704;52.532;6.426;2023-02-20T02:40:39;24.05;;;14.52;;
63005;SDS011;53704;52.532;6.426;2023-02-20T02:46:53;28.95;;;14.40;;
63005;SDS011;53704;52.532;6.426;2023-02-20T02:52:02;21.75;;;14.05;;
63005;SDS011;53704;52.532;6.426;2023-02-20T02:54:29;23.52;;;14.40;;
63005;SDS011;53704;52.532;6.426;2023-02-20T02:59:49;25.40;;;14.27;;
63005;SDS011;53704;52.532;6.426;2023-02-20T03:02:19;29.63;;;15.00;;
63005;SDS011;53704;52.532;6.426;2023-02-20T03:04:47;29.67;;;15.23;;
63005;SDS011;53704;52.532;6.426;2023-02-20T03:07:15;23.85;;;15.30;;
63005;SDS011;53704;52.532;6.426;2023-02-20T03:09:51;22.42;;;14.32;;
63005;SDS011;53704;52.532;6.426;2023-02-20T03:15:09;24.35;;;15.23;;
63005;SDS011;53704;52.532;6.426;2023-02-20T03:18:19;24.58;;;14.23;;
63005;SDS011;53704;52.532;6.426;2023-02-20T03:20:57;26.63;;;14.75;;
63005;SDS011;53704;52.532;6.426;2023-02-20T03:23:32;30.48;;;16.45;;
63005;SDS011;53704;52.532;6.426;2023-02-20T03:26:02;21.90;;;14.43;;
63005;SDS011;53704;52.532;6.426;2023-02-20T03:28:31;25.08;;;15.30;;
63005;SDS011;53704;52.532;6.426;2023-02-20T03:36:47;29.85;;;16.60;;
63005;SDS011;53704;52.532;6.426;2023-02-20T03:39:35;26.33;;;16.95;;
63005;SDS011;53704;52.532;6.426;2023-02-20T03:42:26;28.08;;;17.65;;
63005;SDS011;53704;52.532;6.426;2023-02-20T03:45:13;33.90;;;18.85;;
63005;SDS011;53704;52.532;6.426;2023-02-20T03:47:43;27.50;;;17.45;;
63005;SDS011;53704;52.532;6.426;2023-02-20T03:50:11;31.25;;;18.73;;
63005;SDS011;53704;52.532;6.426;2023-02-20T03:52:38;41.92;;;19.85;;
63005;SDS011;53704;52.532;6.426;2023-02-20T03:55:04;40.40;;;20.65;;
63005;SDS011;53704;52.532;6.426;2023-02-20T03:57:31;31.73;;;19.55;;
63005;SDS011;53704;52.532;6.426;2023-02-20T04:00:07;44.25;;;21.73;;
63005;SDS011;53704;52.532;6.426;2023-02-20T04:02:37;47.38;;;22.27;;
63005;SDS011;53704;52.532;6.426;2023-02-20T04:05:11;41.38;;;21.35;;
63005;SDS011;53704;52.532;6.426;2023-02-20T04:07:49;39.55;;;22.10;;
63005;SDS011;53704;52.532;6.426;2023-02-20T04:10:21;41.05;;;22.58;;
63005;SDS011;53704;52.532;6.426;2023-02-20T04:12:49;45.85;;;23.25;;
63005;SDS011;53704;52.532;6.426;2023-02-20T04:15:18;47.40;;;24.65;;
63005;SDS011;53704;52.532;6.426;2023-02-20T04:17:48;50.08;;;24.40;;
63005;SDS011;53704;52.532;6.426;2023-02-20T04:20:16;42.17;;;23.48;;
63005;SDS011;53704;52.532;6.426;2023-02-20T04:22:42;42.88;;;25.25;;
63005;SDS011;53704;52.532;6.426;2023-02-20T04:28:03;51.60;;;24.17;;
63005;SDS011;53704;52.532;6.426;2023-02-20T04:30:30;50.83;;;25.05;;
63005;SDS011;53704;52.532;6.426;2023-02-20T04:32:56;46.83;;;25.42;;
63005;SDS011;53704;52.532;6.426;2023-02-20T04:35:21;51.72;;;24.73;;
63005;SDS011;53704;52.532;6.426;2023-02-20T04:37:47;55.78;;;25.95;;
63005;SDS011;53704;52.532;6.426;2023-02-20T04:40:13;47.15;;;25.75;;
63005;SDS011;53704;52.532;6.426;2023-02-20T04:42:40;52.97;;;25.00;;
63005;SDS011;53704;52.532;6.426;2023-02-20T04:45:05;48.88;;;27.02;;
63005;SDS011;53704;52.532;6.426;2023-02-20T04:47:31;44.65;;;25.75;;
63005;SDS011;53704;52.532;6.426;2023-02-20T04:49:56;53.70;;;27.00;;
63005;SDS011;53704;52.532;6.426;2023-02-20T04:52:22;50.72;;;26.73;;
63005;SDS011;53704;52.532;6.426;2023-02-20T04:54:48;46.92;;;25.52;;
63005;SDS011;53704;52.532;6.426;2023-02-20T04:57:14;49.97;;;26.80;;
63005;SDS011;53704;52.532;6.426;2023-02-20T04:59:40;56.05;;;26.02;;
63005;SDS011;53704;52.532;6.426;2023-02-20T05:02:06;57.17;;;28.17;;
63005;SDS011;53704;52.532;6.426;2023-02-20T05:04:31;52.05;;;25.98;;
63005;SDS011;53704;52.532;6.426;2023-02-20T05:06:57;50.22;;;27.38;;
63005;SDS011;53704;52.532;6.426;2023-02-20T05:09:22;48.03;;;26.50;;
63005;SDS011;53704;52.532;6.426;2023-02-20T05:11:48;48.15;;;25.80;;
63005;SDS011;53704;52.532;6.426;2023-02-20T05:14:14;53.70;;;28.08;;
63005;SDS011;53704;52.532;6.426;2023-02-20T05:16:41;59.65;;;28.73;;
63005;SDS011;53704;52.532;6.426;2023-02-20T05:19:09;60.55;;;28.02;;
63005;SDS011;53704;52.532;6.426;2023-02-20T05:21:34;60.58;;;28.33;;
63005;SDS011;53704;52.532;6.426;2023-02-20T05:24:18;61.08;;;28.83;;
63005;SDS011;53704;52.532;6.426;2023-02-20T05:26:44;55.97;;;27.85;;
63005;SDS011;53704;52.532;6.426;2023-02-20T05:29:10;55.70;;;28.80;;
63005;SDS011;53704;52.532;6.426;2023-02-20T05:31:40;53.65;;;28.27;;
63005;SDS011;53704;52.532;6.426;2023-02-20T05:34:06;56.33;;;27.70;;
63005;SDS011;53704;52.532;6.426;2023-02-20T05:36:32;53.72;;;28.80;;
63005;SDS011;53704;52.532;6.426;2023-02-20T05:38:58;59.95;;;28.27;;
63005;SDS011;53704;52.532;6.426;2023-02-20T05:41:24;55.53;;;27.25;;
63005;SDS011;53704;52.532;6.426;2023-02-20T05:43:49;58.30;;;26.77;;
63005;SDS011;53704;52.532;6.426;2023-02-20T05:46:15;50.67;;;26.85;;
63005;SDS011;53704;52.532;6.426;2023-02-20T05:48:40;54.30;;;26.88;;
63005;SDS011;53704;52.532;6.426;2023-02-20T05:51:06;45.03;;;24.77;;
63005;SDS011;53704;52.532;6.426;2023-02-20T05:53:31;50.50;;;25.30;;
63005;SDS011;53704;52.532;6.426;2023-02-20T05:55:57;55.35;;;26.75;;
63005;SDS011;53704;52.532;6.426;2023-02-20T05:58:23;54.95;;;26.63;;
63005;SDS011;53704;52.532;6.426;2023-02-20T06:00:49;44.08;;;25.77;;
63005;SDS011;53704;52.532;6.426;2023-02-20T06:03:15;48.40;;;25.70;;
63005;SDS011;53704;52.532;6.426;2023-02-20T06:05:41;59.40;;;26.27;;
63005;SDS011;53704;52.532;6.426;2023-02-20T06:08:06;49.72;;;23.17;;
63005;SDS011;53704;52.532;6.426;2023-02-20T06:10:32;49.53;;;24.83;;
63005;SDS011;53704;52.532;6.426;2023-02-20T06:12:58;52.72;;;25.27;;
63005;SDS011;53704;52.532;6.426;2023-02-20T06:15:24;50.55;;;24.30;;
63005;SDS011;53704;52.532;6.426;2023-02-20T06:17:49;53.78;;;24.98;;
63005;SDS011;53704;52.532;6.426;2023-02-20T06:20:15;45.42;;;22.95;;
63005;SDS011;53704;52.532;6.426;2023-02-20T06:22:41;50.50;;;23.30;;
63005;SDS011;53704;52.532;6.426;2023-02-20T06:25:06;50.72;;;23.58;;
63005;SDS011;53704;52.532;6.426;2023-02-20T06:27:32;48.15;;;23.30;;
63005;SDS011;53704;52.532;6.426;2023-02-20T06:29:57;40.00;;;22.05;;
63005;SDS011;53704;52.532;6.426;2023-02-20T06:32:23;52.90;;;22.27;;
63005;SDS011;53704;52.532;6.426;2023-02-20T06:34:48;40.53;;;22.17;;
63005;SDS011;53704;52.532;6.426;2023-02-20T06:37:14;45.42;;;21.88;;
63005;SDS011;53704;52.532;6.426;2023-02-20T06:39:40;50.63;;;21.88;;
63005;SDS011;53704;52.532;6.426;2023-02-20T06:42:09;52.63;;;23.35;;
63005;SDS011;53704;52.532;6.426;2023-02-20T06:44:35;39.30;;;21.17;;
63005;SDS011;53704;52.532;6.426;2023-02-20T06:47:00;51.25;;;24.65;;
63005;SDS011;53704;52.532;6.426;2023-02-20T06:49:26;41.38;;;21.48;;
63005;SDS011;53704;52.532;6.426;2023-02-20T06:51:52;43.25;;;21.08;;
63005;SDS011;53704;52.532;6.426;2023-02-20T06:54:18;42.00;;;20.27;;
63005;SDS011;53704;52.532;6.426;2023-02-20T06:56:46;36.10;;;20.63;;
63005;SDS011;53704;52.532;6.426;2023-02-20T06:59:12;44.72;;;20.25;;
63005;SDS011;53704;52.532;6.426;2023-02-20T07:01:39;44.75;;;23.25;;
63005;SDS011;53704;52.532;6.426;2023-02-20T07:04:08;49.42;;;22.83;;
63005;SDS011;53704;52.532;6.426;2023-02-20T07:06:40;52.45;;;23.08;;
63005;SDS011;53704;52.532;6.426;2023-02-20T07:09:06;46.17;;;22.23;;
63005;SDS011;53704;52.532;6.426;2023-02-20T07:11:32;51.70;;;21.58;;
63005;SDS011;53704;52.532;6.426;2023-02-20T07:13:57;46.08;;;21.23;;
63005;SDS011;53704;52.532;6.426;2023-02-20T07:16:23;51.85;;;19.75;;
63005;SDS011;53704;52.532;6.426;2023-02-20T07:18:49;37.70;;;19.73;;
63005;SDS011;53704;52.532;6.426;2023-02-20T07:21:14;49.95;;;19.75;;
63005;SDS011;53704;52.532;6.426;2023-02-20T07:23:40;59.53;;;21.27;;
63005;SDS011;53704;52.532;6.426;2023-02-20T07:26:06;43.15;;;19.30;;
63005;SDS011;53704;52.532;6.426;2023-02-20T07:28:33;46.70;;;18.05;;
63005;SDS011;53704;52.532;6.426;2023-02-20T07:30:59;38.42;;;19.30;;
63005;SDS011;53704;52.532;6.426;2023-02-20T07:33:25;31.48;;;16.65;;
63005;SDS011;53704;52.532;6.426;2023-02-20T07:35:50;52.72;;;18.30;;
63005;SDS011;53704;52.532;6.426;2023-02-20T07:38:16;36.05;;;16.73;;
63005;SDS011;53704;52.532;6.426;2023-02-20T07:40:41;36.58;;;16.90;;
63005;SDS011;53704;52.532;6.426;2023-02-20T07:43:07;42.05;;;17.38;;
63005;SDS011;53704;52.532;6.426;2023-02-20T07:45:32;39.47;;;17.20;;
63005;SDS011;53704;52.532;6.426;2023-02-20T07:47:57;37.05;;;16.10;;
63005;SDS011;53704;52.532;6.426;2023-02-20T07:50:23;45.38;;;17.00;;
63005;SDS011;53704;52.532;6.426;2023-02-20T07:52:48;41.35;;;15.45;;
63005;SDS011;53704;52.532;6.426;2023-02-20T07:55:14;44.92;;;16.27;;
63005;SDS011;53704;52.532;6.426;2023-02-20T07:57:41;45.25;;;16.40;;
63005;SDS011;53704;52.532;6.426;2023-02-20T08:00:12;38.63;;;14.82;;
63005;SDS011;53704;52.532;6.426;2023-02-20T08:02:38;32.55;;;15.50;;
63005;SDS011;53704;52.532;6.426;2023-02-20T08:05:04;27.60;;;12.35;;
63005;SDS011;53704;52.532;6.426;2023-02-20T08:07:29;36.72;;;14.98;;
63005;SDS011;53704;52.532;6.426;2023-02-20T08:09:55;27.00;;;13.13;;
63005;SDS011;53704;52.532;6.426;2023-02-20T08:12:20;42.78;;;14.40;;
63005;SDS011;53704;52.532;6.426;2023-02-20T08:14:48;28.33;;;13.70;;
63005;SDS011;53704;52.532;6.426;2023-02-20T08:17:14;30.15;;;13.43;;
63005;SDS011;53704;52.532;6.426;2023-02-20T08:19:40;32.13;;;13.15;;
63005;SDS011;53704;52.532;6.426;2023-02-20T08:22:05;29.92;;;12.82;;
63005;SDS011;53704;52.532;6.426;2023-02-20T08:24:31;31.92;;;11.80;;
63005;SDS011;53704;52.532;6.426;2023-02-20T08:26:57;27.10;;;12.38;;
63005;SDS011;53704;52.532;6.426;2023-02-20T08:29:22;39.50;;;12.50;;
63005;SDS011;53704;52.532;6.426;2023-02-20T08:31:48;38.67;;;12.77;;
63005;SDS011;53704;52.532;6.426;2023-02-20T08:34:13;32.47;;;11.93;;
63005;SDS011;53704;52.532;6.426;2023-02-20T08:36:39;26.05;;;11.73;;
63005;SDS011;53704;52.532;6.426;2023-02-20T08:39:05;26.30;;;11.10;;
63005;SDS011;53704;52.532;6.426;2023-02-20T08:41:30;27.42;;;12.93;;
63005;SDS011;53704;52.532;6.426;2023-02-20T08:43:56;27.50;;;11.52;;
63005;SDS011;53704;52.532;6.426;2023-02-20T08:46:22;31.13;;;12.45;;
63005;SDS011;53704;52.532;6.426;2023-02-20T08:48:47;31.92;;;11.43;;
63005;SDS011;53704;52.532;6.426;2023-02-20T08:51:16;20.58;;;10.27;;
63005;SDS011;53704;52.532;6.426;2023-02-20T08:53:44;32.47;;;11.25;;
63005;SDS011;53704;52.532;6.426;2023-02-20T08:56:09;29.13;;;11.65;;
63005;SDS011;53704;52.532;6.426;2023-02-20T08:58:36;25.45;;;11.10;;
63005;SDS011;53704;52.532;6.426;2023-02-20T09:01:02;30.15;;;11.80;;
63005;SDS011;53704;52.532;6.426;2023-02-20T09:03:28;24.95;;;10.40;;
63005;SDS011;53704;52.532;6.426;2023-02-20T09:05:53;16.35;;;10.10;;
63005;SDS011;53704;52.532;6.426;2023-02-20T09:08:19;23.35;;;9.90;;
63005;SDS011;53704;52.532;6.426;2023-02-20T09:10:44;36.85;;;11.52;;
63005;SDS011;53704;52.532;6.426;2023-02-20T09:13:10;25.45;;;10.65;;
63005;SDS011;53704;52.532;6.426;2023-02-20T09:15:35;25.70;;;10.23;;
63005;SDS011;53704;52.532;6.426;2023-02-20T09:18:04;23.00;;;10.05;;
63005;SDS011;53704;52.532;6.426;2023-02-20T09:20:33;22.35;;;9.20;;
63005;SDS011;53704;52.532;6.426;2023-02-20T09:22:58;17.83;;;8.35;;
63005;SDS011;53704;52.532;6.426;2023-02-20T09:25:24;27.40;;;9.38;;
63005;SDS011;53704;52.532;6.426;2023-02-20T09:27:50;27.33;;;9.50;;
63005;SDS011;53704;52.532;6.426;2023-02-20T09:30:16;23.05;;;9.20;;
63005;SDS011;53704;52.532;6.426;2023-02-20T09:32:44;26.77;;;8.98;;
63005;SDS011;53704;52.532;6.426;2023-02-20T09:35:15;25.80;;;8.65;;
63005;SDS011;53704;52.532;6.426;2023-02-20T09:37:42;22.73;;;8.45;;
63005;SDS011;53704;52.532;6.426;2023-02-20T09:40:09;28.83;;;8.52;;
63005;SDS011;53704;52.532;6.426;2023-02-20T09:45:18;25.58;;;8.52;;
63005;SDS011;53704;52.532;6.426;2023-02-20T09:50:57;21.80;;;8.65;;
63005;SDS011;53704;52.532;6.426;2023-02-20T09:53:34;20.30;;;8.25;;
63005;SDS011;53704;52.532;6.426;2023-02-20T09:56:05;22.75;;;8.75;;
63005;SDS011;53704;52.532;6.426;2023-02-20T10:01:08;23.70;;;8.38;;
63005;SDS011;53704;52.532;6.426;2023-02-20T10:03:50;24.83;;;8.23;;
63005;SDS011;53704;52.532;6.426;2023-02-20T10:06:20;22.50;;;8.48;;
63005;SDS011;53704;52.532;6.426;2023-02-20T10:08:47;25.75;;;8.98;;
63005;SDS011;53704;52.532;6.426;2023-02-20T10:12:03;21.23;;;7.82;;
63005;SDS011;53704;52.532;6.426;2023-02-20T10:14:09;23.83;;;8.75;;
63005;SDS011;53704;52.532;6.426;2023-02-20T10:24:51;16.17;;;6.97;;
63005;SDS011;53704;52.532;6.426;2023-02-20T10:33:39;23.98;;;8.73;;
63005;SDS011;53704;52.532;6.426;2023-02-20T10:39:10;24.52;;;8.32;;
63005;SDS011;53704;52.532;6.426;2023-02-20T10:41:45;24.42;;;9.88;;
63005;SDS011;53704;52.532;6.426;2023-02-20T10:47:03;28.08;;;9.07;;
63005;SDS011;53704;52.532;6.426;2023-02-20T10:52:33;25.77;;;8.98;;
63005;SDS011;53704;52.532;6.426;2023-02-20T10:57:40;18.83;;;9.07;;
63005;SDS011;53704;52.532;6.426;2023-02-20T11:00:12;14.75;;;8.52;;
63005;SDS011;53704;52.532;6.426;2023-02-20T11:02:43;22.00;;;9.43;;
63005;SDS011;53704;52.532;6.426;2023-02-20T11:05:15;15.52;;;7.93;;
63005;SDS011;53704;52.532;6.426;2023-02-20T11:07:43;13.05;;;7.90;;
63005;SDS011;53704;52.532;6.426;2023-02-20T11:10:09;18.85;;;8.18;;
63005;SDS011;53704;52.532;6.426;2023-02-20T11:12:50;25.77;;;9.13;;
63005;SDS011;53704;52.532;6.426;2023-02-20T11:15:21;18.67;;;9.00;;
63005;SDS011;53704;52.532;6.426;2023-02-20T11:17:50;12.43;;;7.45;;
63005;SDS011;53704;52.532;6.426;2023-02-20T11:23:03;14.98;;;9.00;;
63005;SDS011;53704;52.532;6.426;2023-02-20T11:25:35;23.58;;;9.10;;
63005;SDS011;53704;52.532;6.426;2023-02-20T11:28:10;21.48;;;8.77;;
63005;SDS011;53704;52.532;6.426;2023-02-20T11:30:45;13.30;;;8.05;;
63005;SDS011;53704;52.532;6.426;2023-02-20T11:33:17;20.63;;;9.02;;
63005;SDS011;53704;52.532;6.426;2023-02-20T11:35:46;21.88;;;8.05;;
63005;SDS011;53704;52.532;6.426;2023-02-20T11:40:44;13.15;;;7.03;;
63005;SDS011;53704;52.532;6.426;2023-02-20T11:45:37;14.48;;;8.05;;
63005;SDS011;53704;52.532;6.426;2023-02-20T11:48:13;18.80;;;7.15;;
63005;SDS011;53704;52.532;6.426;2023-02-20T11:50:45;15.70;;;6.97;;
63005;SDS011;53704;52.532;6.426;2023-02-20T11:53:31;11.23;;;6.00;;
63005;SDS011;53704;52.532;6.426;2023-02-20T11:56:14;14.20;;;6.60;;
63005;SDS011;53704;52.532;6.426;2023-02-20T11:58:44;15.07;;;6.15;;
63005;SDS011;53704;52.532;6.426;2023-02-20T12:01:27;15.77;;;6.65;;
63005;SDS011;53704;52.532;6.426;2023-02-20T12:03:55;16.73;;;6.38;;
63005;SDS011;53704;52.532;6.426;2023-02-20T12:06:32;14.98;;;5.78;;
63005;SDS011;53704;52.532;6.426;2023-02-20T12:09:06;12.15;;;6.15;;
63005;SDS011;53704;52.532;6.426;2023-02-20T12:11:38;18.77;;;6.00;;
63005;SDS011;53704;52.532;6.426;2023-02-20T12:14:13;20.77;;;6.13;;
63005;SDS011;53704;52.532;6.426;2023-02-20T12:19:17;14.57;;;6.40;;
63005;SDS011;53704;52.532;6.426;2023-02-20T12:27:33;7.65;;;5.43;;
63005;SDS011;53704;52.532;6.426;2023-02-20T12:30:33;12.52;;;5.15;;
63005;SDS011;53704;52.532;6.426;2023-02-20T12:35:35;13.15;;;5.28;;
63005;SDS011;53704;52.532;6.426;2023-02-20T12:43:58;13.73;;;5.63;;
63005;SDS011;53704;52.532;6.426;2023-02-20T12:46:30;11.73;;;5.40;;
63005;SDS011;53704;52.532;6.426;2023-02-20T12:49:18;14.18;;;5.13;;
63005;SDS011;53704;52.532;6.426;2023-02-20T12:52:01;8.18;;;5.15;;
63005;SDS011;53704;52.532;6.426;2023-02-20T12:59:40;11.35;;;4.97;;
63005;SDS011;53704;52.532;6.426;2023-02-20T13:02:32;10.38;;;6.00;;
63005;SDS011;53704;52.532;6.426;2023-02-20T13:05:10;6.28;;;5.13;;
63005;SDS011;53704;52.532;6.426;2023-02-20T13:07:42;16.95;;;6.60;;
63005;SDS011;53704;52.532;6.426;2023-02-20T13:10:13;13.30;;;6.68;;
63005;SDS011;53704;52.532;6.426;2023-02-20T13:12:48;12.10;;;6.28;;
63005;SDS011;53704;52.532;6.426;2023-02-20T13:17:57;8.30;;;5.35;;
63005;SDS011;53704;52.532;6.426;2023-02-20T13:20:53;6.50;;;5.40;;
63005;SDS011;53704;52.532;6.426;2023-02-20T13:25:47;18.75;;;6.38;;
63005;SDS011;53704;52.532;6.426;2023-02-20T13:30:44;15.23;;;5.32;;
63005;SDS011;53704;52.532;6.426;2023-02-20T13:33:18;12.48;;;5.65;;
63005;SDS011;53704;52.532;6.426;2023-02-20T13:35:54;15.73;;;6.20;;
63005;SDS011;53704;52.532;6.426;2023-02-20T13:38:22;11.32;;;6.32;;
63005;SDS011;53704;52.532;6.426;2023-02-20T13:53:48;11.95;;;5.82;;
63005;SDS011;53704;52.532;6.426;2023-02-20T13:58:55;7.32;;;4.68;;
63005;SDS011;53704;52.532;6.426;2023-02-20T14:01:22;9.02;;;4.95;;
63005;SDS011;53704;52.532;6.426;2023-02-20T14:04:01;18.25;;;4.40;;
63005;SDS011;53704;52.532;6.426;2023-02-20T14:06:28;7.38;;;4.05;;
63005;SDS011;53704;52.532;6.426;2023-02-20T14:09:05;13.57;;;5.05;;
63005;SDS011;53704;52.532;6.426;2023-02-20T14:11:36;10.07;;;5.45;;
63005;SDS011;53704;52.532;6.426;2023-02-20T14:14:06;13.10;;;4.85;;
63005;SDS011;53704;52.532;6.426;2023-02-20T14:16:36;10.43;;;4.47;;
63005;SDS011;53704;52.532;6.426;2023-02-20T14:19:07;4.53;;;4.07;;
63005;SDS011;53704;52.532;6.426;2023-02-20T14:21:44;13.55;;;4.70;;
63005;SDS011;53704;52.532;6.426;2023-02-20T14:24:21;12.05;;;4.30;;
63005;SDS011;53704;52.532;6.426;2023-02-20T14:26:47;8.18;;;4.28;;
63005;SDS011;53704;52.532;6.426;2023-02-20T14:31:53;9.25;;;4.38;;
63005;SDS011;53704;52.532;6.426;2023-02-20T14:37:25;15.38;;;4.38;;
63005;SDS011;53704;52.532;6.426;2023-02-20T14:42:33;10.38;;;4.15;;
63005;SDS011;53704;52.532;6.426;2023-02-20T14:45:04;11.77;;;4.72;;
63005;SDS011;53704;52.532;6.426;2023-02-20T14:47:47;14.43;;;4.78;;
63005;SDS011;53704;52.532;6.426;2023-02-20T14:50:33;7.63;;;3.70;;
63005;SDS011;53704;52.532;6.426;2023-02-20T14:53:13;6.28;;;3.50;;
63005;SDS011;53704;52.532;6.426;2023-02-20T14:55:44;11.30;;;3.83;;
63005;SDS011;53704;52.532;6.426;2023-02-20T14:58:14;11.32;;;4.63;;
63005;SDS011;53704;52.532;6.426;2023-02-20T15:00:42;11.25;;;5.32;;
63005;SDS011;53704;52.532;6.426;2023-02-20T15:03:18;17.42;;;4.57;;
63005;SDS011;53704;52.532;6.426;2023-02-20T15:05:46;11.25;;;4.82;;
63005;SDS011;53704;52.532;6.426;2023-02-20T15:10:41;10.20;;;4.07;;
63005;SDS011;53704;52.532;6.426;2023-02-20T15:13:13;7.25;;;3.72;;
63005;SDS011;53704;52.532;6.426;2023-02-20T15:15:43;8.98;;;4.32;;
63005;SDS011;53704;52.532;6.426;2023-02-20T15:18:33;15.57;;;4.78;;
63005;SDS011;53704;52.532;6.426;2023-02-20T15:21:00;8.63;;;4.20;;
63005;SDS011;53704;52.532;6.426;2023-02-20T15:23:33;15.70;;;4.50;;
63005;SDS011;53704;52.532;6.426;2023-02-20T15:31:43;9.38;;;4.20;;
63005;SDS011;53704;52.532;6.426;2023-02-20T15:34:15;18.40;;;5.22;;
63005;SDS011;53704;52.532;6.426;2023-02-20T15:36:44;10.63;;;4.28;;
63005;SDS011;53704;52.532;6.426;2023-02-20T15:39:10;13.68;;;4.28;;
63005;SDS011;53704;52.532;6.426;2023-02-20T15:41:37;11.68;;;4.88;;
63005;SDS011;53704;52.532;6.426;2023-02-20T15:44:03;10.35;;;4.28;;
63005;SDS011;53704;52.532;6.426;2023-02-20T15:46:28;9.98;;;4.15;;
63005;SDS011;53704;52.532;6.426;2023-02-20T15:48:54;12.45;;;4.72;;
63005;SDS011;53704;52.532;6.426;2023-02-20T15:51:20;10.35;;;5.22;;
63005;SDS011;53704;52.532;6.426;2023-02-20T15:53:47;7.53;;;4.85;;
63005;SDS011;53704;52.532;6.426;2023-02-20T15:56:15;15.27;;;5.05;;
63005;SDS011;53704;52.532;6.426;2023-02-20T15:58:42;12.18;;;4.88;;
63005;SDS011;53704;52.532;6.426;2023-02-20T16:01:08;11.85;;;5.13;;
63005;SDS011;53704;52.532;6.426;2023-02-20T16:03:34;8.32;;;4.20;;
63005;SDS011;53704;52.532;6.426;2023-02-20T16:06:00;12.90;;;5.40;;
63005;SDS011;53704;52.532;6.426;2023-02-20T16:08:26;7.75;;;4.80;;
63005;SDS011;53704;52.532;6.426;2023-02-20T16:10:52;17.08;;;5.10;;
63005;SDS011;53704;52.532;6.426;2023-02-20T16:15:53;13.68;;;4.97;;
63005;SDS011;53704;52.532;6.426;2023-02-20T16:18:19;7.40;;;4.90;;
63005;SDS011;53704;52.532;6.426;2023-02-20T16:20:44;8.75;;;5.47;;
63005;SDS011;53704;52.532;6.426;2023-02-20T16:23:10;8.27;;;4.43;;
63005;SDS011;53704;52.532;6.426;2023-02-20T16:25:35;8.18;;;4.95;;
63005;SDS011;53704;52.532;6.426;2023-02-20T16:28:03;13.73;;;6.28;;
63005;SDS011;53704;52.532;6.426;2023-02-20T16:30:36;9.43;;;5.20;;
63005;SDS011;53704;52.532;6.426;2023-02-20T16:36:02;8.80;;;5.65;;
63005;SDS011;53704;52.532;6.426;2023-02-20T16:38:28;7.18;;;5.60;;
63005;SDS011;53704;52.532;6.426;2023-02-20T16:40:56;11.80;;;6.25;;
63005;SDS011;53704;52.532;6.426;2023-02-20T16:43:23;13.80;;;6.60;;
63005;SDS011;53704;52.532;6.426;2023-02-20T16:45:49;11.48;;;6.32;;
63005;SDS011;53704;52.532;6.426;2023-02-20T16:48:16;8.35;;;6.38;;
63005;SDS011;53704;52.532;6.426;2023-02-20T16:50:43;15.02;;;7.10;;
63005;SDS011;53704;52.532;6.426;2023-02-20T16:53:12;9.88;;;6.03;;
63005;SDS011;53704;52.532;6.426;2023-02-20T16:55:38;10.57;;;6.28;;
63005;SDS011;53704;52.532;6.426;2023-02-20T16:58:09;11.82;;;6.20;;
63005;SDS011;53704;52.532;6.426;2023-02-20T17:00:36;10.25;;;5.88;;
63005;SDS011;53704;52.532;6.426;2023-02-20T17:03:05;12.70;;;6.55;;
63005;SDS011;53704;52.532;6.426;2023-02-20T17:05:32;13.02;;;7.70;;
63005;SDS011;53704;52.532;6.426;2023-02-20T17:07:59;11.43;;;6.53;;
63005;SDS011;53704;52.532;6.426;2023-02-20T17:10:25;15.02;;;7.30;;
63005;SDS011;53704;52.532;6.426;2023-02-20T17:12:52;11.43;;;7.45;;